X  Close Metar Aviation Weather Data        KDWH George Bush Intercontinental Airport
Temperature
60°F Temperature
60°F Dewpoint
100% Humidity



Wind
0 MPH
0 KM/H
0 M/S
0 KTS



Calm
N
Current Conditions

Mostly Cloudy with Fog Mostly Cloudy , Fog
Pressure 1019 (hPa) - 30.1 (inHg)
Visibility 0 (mile) - 0 (km)
Airport
Airport-code KDWH

Location: George Bush Intercontinental Airport
Distance: 12 (mi)

Metar:
SPECI KDWH 030639Z AUTO 00000KT M1/4SM FG VV005 16/16 A3010 RMK AO2 T01560156

Time: 12-03-2021 00:39 CST